Strona główna
METAR-TAF:

METAR-TAF

Lotnisko :

Lotnisko Vöslau-Kottingbrunn

Bad Vöslau, Austria

Szerokość geograficzna: 47-57-52N, Długość geograficzna: 016-15-34E, wysokość: 233 m

Aktualna obserwacja pogody

Raport powstał 4 godziny i 22 minut temu, godzina 16:00 UTC
Wiatr 7 kt od północno-północny wschód
Temperatura 3°C
Wilgotność 56%
Ciśnienie

METAR: LOAV 251600Z 02007KT 40KM SCT040CU BKN300CI 03/M05

czas: 21:22 (20:22 UTC)

Prognoza

Raport powstał 8 godziny i 57 minut temu, godzina 11:25 UTC
Prognoza ważna od 25 godzina 12 UTC do 25 godzina 21 UTC
Wiatr 10 kt od północny zachód
Widzialność 10 km lub więcej
Rozproszone chmury na wysokości 3000 ft

TAF: LOAV 251125Z 2512/2521 32010KT 9999 SCT030

Obserwacja i prognoza pogody dla ponad 4000 lotnisk (raport METAR i TAF).

Dostępne stacje oznaczono żółtymi i czerwonymi punktami na mapie.

Najedź kursorem aby zobaczyć nazwę stacji.

Kliknij aby zobaczyć obserwacje i prognozy pogody.

Aby zmienić mapę: kliknij na zielony przycisk z czarnym krzyżykiem, aby powiększyć; na zielony przycisk z myślnikiem, aby pomniejszyć; na zielone strzałki, aby przejść do map sąsiednich.


METAR-TAF: